createdAt,value
2023-01-13T00:01:27.151Z,87.55
2023-01-13T00:03:54.050Z,87.33
2023-01-13T00:06:23.754Z,87.76
2023-01-13T00:08:52.065Z,87.92
2023-01-13T00:11:19.966Z,87.65
2023-01-13T00:13:47.212Z,87.75
2023-01-13T00:16:18.875Z,88.42
2023-01-13T00:18:47.497Z,88.24
2023-01-13T00:21:22.444Z,88.26
2023-01-13T00:23:52.276Z,87.68
2023-01-13T00:26:23.277Z,87.96
2023-01-13T00:28:50.444Z,86.96
2023-01-13T00:31:21.624Z,85.92
2023-01-13T00:33:50.550Z,86.92
2023-01-13T00:36:19.506Z,87.25
2023-01-13T00:38:46.775Z,86.65
2023-01-13T00:41:20.072Z,86.94
2023-01-13T00:43:47.757Z,87.64
2023-01-13T00:46:18.108Z,87.51
2023-01-13T00:48:45.819Z,87.88
2023-01-13T00:51:21.777Z,88.33
2023-01-13T00:53:51.929Z,88.40
2023-01-13T00:56:34.204Z,88.43
2023-01-13T00:59:05.630Z,87.24
2023-01-13T01:01:33.003Z,87.46
2023-01-13T01:04:02.636Z,88.32
2023-01-13T01:06:34.277Z,88.27
2023-01-13T01:09:03.880Z,89.68
2023-01-13T01:11:33.955Z,89.84
2023-01-13T01:14:04.680Z,88.79
2023-01-13T01:16:33.835Z,88.43
2023-01-13T01:19:01.605Z,88.72
2023-01-13T01:21:29.723Z,88.23
2023-01-13T01:24:01.326Z,89.32
2023-01-13T01:26:31.056Z,88.76
2023-01-13T01:28:58.041Z,88.10
2023-01-13T01:31:31.779Z,87.89
2023-01-13T01:34:00.404Z,88.35
2023-01-13T01:36:29.047Z,88.81
2023-01-13T01:38:58.029Z,88.93
2023-01-13T01:41:31.114Z,88.79
2023-01-13T01:44:42.220Z,89.33
2023-01-13T01:47:11.813Z,88.93
2023-01-13T01:49:40.261Z,88.64
2023-01-13T01:52:16.440Z,88.74
2023-01-13T01:55:01.889Z,90.67
2023-01-13T01:57:52.343Z,90.01
2023-01-13T02:00:19.345Z,90.93
2023-01-13T02:02:49.803Z,91.34
2023-01-13T02:05:17.607Z,91.24
2023-01-13T02:07:47.476Z,91.30
2023-01-13T02:10:18.229Z,91.21
2023-01-13T02:12:46.361Z,91.05
2023-01-13T02:15:47.674Z,90.94
2023-01-13T02:18:27.058Z,90.75
2023-01-13T02:21:15.089Z,89.76
2023-01-13T02:24:00.568Z,90.83
2023-01-13T02:27:17.988Z,90.39
2023-01-13T02:30:10.067Z,92.02
2023-01-13T02:32:55.272Z,91.40
2023-01-13T02:35:35.357Z,92.15
2023-01-13T02:38:03.340Z,92.85
2023-01-13T02:40:38.010Z,92.54
2023-01-13T02:43:18.260Z,92.71
2023-01-13T02:45:53.650Z,92.25
2023-01-13T02:48:24.202Z,92.63
2023-01-13T02:50:56.556Z,92.09
2023-01-13T02:53:31.627Z,93.18
2023-01-13T02:56:03.125Z,93.49
2023-01-13T02:58:33.154Z,93.17
2023-01-13T03:01:00.142Z,93.79
2023-01-13T03:03:27.146Z,94.96
2023-01-13T03:06:12.068Z,94.14
2023-01-13T03:08:49.877Z,93.57
2023-01-13T03:11:19.085Z,93.75
2023-01-13T03:13:48.843Z,93.19
2023-01-13T03:16:37.561Z,93.18
2023-01-13T03:19:14.006Z,92.43
2023-01-13T03:22:11.742Z,92.45
2023-01-13T03:25:00.864Z,92.38
2023-01-13T03:27:42.085Z,92.69
2023-01-13T03:30:55.240Z,93.12
2023-01-13T03:33:28.384Z,92.66
2023-01-13T03:35:59.879Z,91.56
2023-01-13T03:38:33.925Z,91.28
2023-01-13T03:41:06.513Z,92.59
2023-01-13T03:44:01.433Z,92.74
2023-01-13T03:47:01.975Z,92.23
2023-01-13T03:49:36.655Z,91.96
2023-01-13T03:52:07.399Z,92.43
2023-01-13T03:54:42.171Z,91.48
2023-01-13T03:57:12.812Z,91.91
2023-01-13T03:59:43.596Z,91.67
2023-01-13T04:02:16.628Z,91.13
2023-01-13T04:04:57.481Z,90.14
2023-01-13T04:07:30.784Z,89.79
2023-01-13T04:10:01.727Z,88.88
2023-01-13T04:12:31.112Z,89.72
2023-01-13T04:14:57.936Z,89.95
2023-01-13T04:17:24.899Z,90.65
2023-01-13T04:19:51.533Z,90.44
2023-01-13T04:22:18.176Z,88.47
2023-01-13T04:24:44.801Z,88.58
2023-01-13T04:27:11.540Z,89.37
2023-01-13T04:29:38.284Z,88.58
2023-01-13T04:32:05.096Z,89.77
2023-01-13T04:34:31.728Z,89.11
2023-01-13T04:36:58.377Z,88.86
2023-01-13T04:39:25.059Z,88.26
2023-01-13T04:41:51.731Z,88.35
2023-01-13T04:44:18.448Z,87.56
2023-01-13T04:46:46.501Z,88.00
2023-01-13T04:49:13.833Z,88.20
2023-01-13T04:51:40.588Z,87.51
2023-01-13T04:54:07.420Z,87.55
2023-01-13T04:56:34.077Z,87.33
2023-01-13T04:59:00.739Z,87.62
2023-01-13T05:01:27.729Z,87.58
2023-01-13T05:03:54.421Z,87.49
2023-01-13T05:06:21.339Z,87.50
2023-01-13T05:08:48.009Z,88.42
2023-01-13T05:11:14.924Z,89.08
2023-01-13T05:13:41.517Z,88.72
2023-01-13T05:16:11.429Z,88.89
2023-01-13T05:18:38.129Z,87.34
2023-01-13T05:21:06.208Z,87.65
2023-01-13T05:23:33.288Z,88.41
2023-01-13T05:25:59.937Z,89.94
2023-01-13T05:28:26.579Z,90.18
2023-01-13T05:30:53.332Z,89.33
2023-01-13T05:33:20.362Z,88.48
2023-01-13T05:35:48.376Z,87.09
2023-01-13T05:38:15.833Z,87.02
2023-01-13T05:40:42.523Z,86.89
2023-01-13T05:43:14.558Z,86.67
2023-01-13T05:45:41.522Z,86.13
2023-01-13T05:48:08.823Z,84.36
2023-01-13T05:50:35.503Z,85.38
2023-01-13T05:53:06.554Z,85.77
2023-01-13T05:55:33.204Z,85.61
2023-01-13T05:57:59.794Z,86.34
2023-01-13T06:00:26.529Z,85.67
2023-01-13T06:02:53.149Z,85.82
2023-01-13T06:05:19.884Z,84.55
2023-01-13T06:07:46.540Z,82.32
2023-01-13T06:10:13.228Z,83.63
2023-01-13T06:12:39.799Z,83.91
2023-01-13T06:15:06.915Z,85.32
2023-01-13T06:17:33.555Z,84.57
2023-01-13T06:20:00.249Z,84.95
2023-01-13T06:22:29.777Z,85.99
2023-01-13T06:24:56.551Z,85.20
2023-01-13T06:27:23.398Z,85.10
2023-01-13T06:29:50.831Z,84.21
2023-01-13T06:32:22.507Z,84.26
2023-01-13T06:34:55.629Z,83.58
2023-01-13T06:37:23.672Z,83.52
2023-01-13T06:39:50.285Z,84.02
2023-01-13T06:42:18.161Z,83.55
2023-01-13T06:44:45.611Z,84.06
2023-01-13T06:47:12.915Z,83.95
2023-01-13T06:49:39.991Z,84.56
2023-01-13T06:52:06.783Z,84.28
2023-01-13T06:54:33.660Z,84.59
2023-01-13T06:57:01.406Z,85.17
2023-01-13T06:59:30.984Z,86.13
2023-01-13T07:01:57.888Z,87.87
2023-01-13T07:04:25.029Z,87.31
2023-01-13T07:06:53.098Z,88.28
2023-01-13T07:09:20.962Z,88.56
2023-01-13T07:11:48.910Z,89.01
2023-01-13T07:14:15.587Z,88.58
2023-01-13T07:16:42.432Z,89.08
2023-01-13T07:19:09.102Z,90.60
2023-01-13T07:21:35.954Z,90.22
2023-01-13T07:24:15.902Z,90.38
2023-01-13T07:26:45.940Z,90.67
2023-01-13T07:29:12.813Z,88.96
2023-01-13T07:31:40.596Z,89.06
2023-01-13T07:34:08.979Z,90.35
2023-01-13T07:36:36.977Z,89.80
2023-01-13T07:39:03.940Z,90.67
2023-01-13T07:41:32.424Z,90.16
2023-01-13T07:44:04.507Z,90.08
2023-01-13T07:46:31.378Z,89.47
2023-01-13T07:49:00.166Z,89.47
2023-01-13T07:51:27.192Z,90.07
2023-01-13T07:53:54.007Z,89.18
2023-01-13T07:56:22.413Z,88.39
2023-01-13T07:58:49.123Z,87.40
2023-01-13T08:01:17.887Z,86.31
2023-01-13T08:03:45.233Z,86.43
2023-01-13T08:06:12.388Z,85.53
2023-01-13T08:08:39.406Z,85.30
2023-01-13T08:11:08.109Z,84.92
2023-01-13T08:13:35.104Z,85.22
2023-01-13T08:16:04.899Z,85.50
2023-01-13T08:18:32.857Z,85.72
2023-01-13T08:21:05.621Z,84.97
2023-01-13T08:23:32.363Z,84.95
2023-01-13T08:26:04.866Z,84.87
2023-01-13T08:28:31.620Z,83.49
2023-01-13T08:31:07.872Z,83.04
2023-01-13T08:33:34.728Z,82.89
2023-01-13T08:36:09.807Z,83.15
2023-01-13T08:38:37.164Z,82.76
2023-01-13T08:41:16.100Z,83.60
2023-01-13T08:43:42.896Z,83.15
2023-01-13T08:46:09.569Z,84.71
2023-01-13T08:48:36.380Z,85.81
2023-01-13T08:51:08.625Z,85.48
2023-01-13T08:53:36.533Z,85.27
2023-01-13T08:56:07.607Z,86.36
2023-01-13T08:58:34.292Z,86.00
2023-01-13T09:01:05.488Z,85.20
2023-01-13T09:03:32.538Z,85.34
2023-01-13T09:05:59.134Z,84.67
2023-01-13T09:08:25.876Z,83.09
2023-01-13T09:10:52.565Z,82.01
2023-01-13T09:13:19.378Z,83.23
2023-01-13T09:15:48.513Z,83.42
2023-01-13T09:18:15.341Z,84.49
2023-01-13T09:20:42.026Z,84.44
2023-01-13T09:23:10.579Z,83.12
2023-01-13T09:25:38.224Z,83.31
2023-01-13T09:28:05.230Z,81.65
2023-01-13T09:30:32.270Z,82.58
2023-01-13T09:32:59.706Z,82.92
2023-01-13T09:35:26.402Z,81.70
2023-01-13T09:37:54.060Z,82.56
2023-01-13T09:40:21.207Z,82.32
2023-01-13T09:42:50.856Z,81.36
2023-01-13T09:45:29.402Z,80.08
2023-01-13T09:48:11.529Z,81.31
2023-01-13T09:50:54.827Z,82.16
2023-01-13T09:53:28.555Z,81.83
2023-01-13T09:55:56.024Z,81.63
2023-01-13T09:58:27.607Z,82.08
2023-01-13T10:01:24.301Z,81.42
2023-01-13T10:04:04.442Z,81.17
2023-01-13T10:10:40.299Z,79.81
2023-01-13T10:13:37.931Z,80.89
2023-01-13T10:16:10.710Z,81.20
2023-01-13T10:18:53.404Z,79.46
2023-01-13T10:21:34.753Z,79.21
2023-01-13T10:24:21.885Z,78.77
2023-01-13T10:27:02.796Z,78.23
2023-01-13T10:29:32.984Z,78.53
2023-01-13T10:32:00.599Z,79.30
2023-01-13T10:34:28.409Z,78.15
2023-01-13T10:36:57.861Z,77.78
2023-01-13T10:39:25.197Z,77.81
2023-01-13T10:42:06.947Z,77.01
2023-01-13T10:44:52.936Z,77.41
2023-01-13T10:47:27.192Z,76.57
2023-01-13T10:50:20.734Z,76.49
2023-01-13T10:53:03.196Z,75.01
2023-01-13T10:55:35.945Z,76.45
2023-01-13T10:58:13.178Z,78.04
2023-01-13T11:00:40.353Z,74.92
2023-01-13T11:03:20.111Z,76.50
2023-01-13T11:05:50.178Z,75.92
2023-01-13T11:08:25.830Z,74.80
2023-01-13T11:10:55.511Z,76.00
2023-01-13T11:13:42.666Z,75.20
2023-01-13T11:16:17.981Z,74.43
2023-01-13T11:19:00.175Z,71.93
2023-01-13T11:21:35.608Z,71.33
2023-01-13T11:24:22.570Z,72.77
2023-01-13T11:27:01.929Z,73.17
2023-01-13T11:29:37.683Z,73.24
2023-01-13T11:32:19.492Z,72.65
2023-01-13T11:34:51.449Z,73.90
2023-01-13T11:37:41.090Z,72.33
2023-01-13T11:40:18.856Z,72.34
2023-01-13T11:43:08.589Z,71.43
2023-01-13T11:45:46.083Z,70.53
2023-01-13T11:48:17.408Z,70.51
2023-01-13T11:51:16.561Z,71.46
2023-01-13T11:54:01.269Z,70.02
2023-01-13T11:57:05.249Z,68.73
2023-01-13T11:59:38.099Z,66.56
2023-01-13T12:02:07.792Z,66.47
2023-01-13T12:04:41.158Z,65.71
2023-01-13T12:07:34.232Z,68.86
2023-01-13T12:10:30.491Z,68.44
2023-01-13T12:13:13.710Z,68.95
2023-01-13T12:16:13.767Z,67.77
2023-01-13T12:19:02.173Z,66.38
2023-01-13T12:21:32.740Z,67.80
2023-01-13T12:24:24.509Z,68.13
2023-01-13T12:27:11.350Z,67.24
2023-01-13T12:29:39.268Z,66.72
2023-01-13T12:32:12.394Z,68.18
2023-01-13T12:34:44.718Z,67.57
2023-01-13T12:37:23.557Z,67.11
2023-01-13T12:40:05.197Z,66.39
2023-01-13T12:42:48.570Z,65.57
2023-01-13T12:45:16.488Z,65.72
2023-01-13T12:47:45.696Z,66.03
2023-01-13T12:50:24.962Z,65.43
2023-01-13T12:52:54.053Z,65.95
2023-01-13T12:55:36.469Z,65.80
2023-01-13T12:58:06.082Z,67.12
2023-01-13T13:00:41.629Z,66.43
2023-01-13T13:03:08.397Z,63.99
2023-01-13T13:05:41.050Z,65.08
2023-01-13T13:08:26.497Z,64.31
2023-01-13T13:11:22.976Z,63.35
2023-01-13T13:13:49.722Z,62.67
2023-01-13T13:16:25.572Z,63.33
2023-01-13T13:19:18.625Z,63.02
2023-01-13T13:22:15.710Z,64.21
2023-01-13T13:24:48.602Z,63.54
2023-01-13T13:27:22.411Z,62.81
2023-01-13T13:30:11.567Z,63.98
2023-01-13T13:33:16.743Z,63.41
2023-01-13T13:35:46.241Z,62.92
2023-01-13T13:38:25.111Z,63.09
2023-01-13T13:40:52.122Z,63.20
2023-01-13T13:43:20.418Z,63.24
2023-01-13T13:45:51.720Z,62.08
2023-01-13T13:48:44.907Z,62.71
2023-01-13T13:51:35.018Z,62.44
2023-01-13T13:54:02.109Z,62.78
2023-01-13T13:56:35.441Z,63.17
2023-01-13T13:59:02.193Z,63.13
2023-01-13T14:01:34.716Z,64.60
2023-01-13T14:04:15.796Z,64.76
2023-01-13T14:07:05.377Z,63.16
2023-01-13T14:09:45.585Z,63.35
2023-01-13T14:12:26.344Z,63.59
2023-01-13T14:14:53.699Z,62.87
2023-01-13T14:17:24.997Z,61.22
2023-01-13T14:19:54.072Z,62.19
2023-01-13T14:22:21.170Z,61.57
2023-01-13T14:24:48.898Z,62.17
2023-01-13T14:27:18.314Z,62.07
2023-01-13T14:29:45.330Z,62.23
2023-01-13T14:32:19.270Z,62.65
2023-01-13T14:34:46.471Z,62.79
2023-01-13T14:37:28.729Z,63.11
2023-01-13T14:39:56.801Z,63.86
2023-01-13T14:42:23.607Z,64.34
2023-01-13T14:44:51.564Z,63.97
2023-01-13T14:47:24.457Z,63.86
2023-01-13T14:50:16.348Z,63.89
2023-01-13T14:52:53.539Z,64.25
2023-01-13T14:55:35.885Z,63.79
2023-01-13T14:58:28.695Z,64.28
2023-01-13T15:01:33.872Z,63.35
2023-01-13T15:04:39.987Z,65.55
2023-01-13T15:07:23.554Z,65.15
2023-01-13T15:09:54.585Z,65.81
2023-01-13T15:12:55.981Z,66.39
2023-01-13T15:15:24.135Z,66.02
2023-01-13T15:17:51.705Z,67.22
2023-01-13T15:20:22.707Z,71.27
2023-01-13T15:22:51.157Z,75.18
2023-01-13T15:25:20.172Z,77.58
2023-01-13T15:27:50.225Z,79.22
2023-01-13T15:30:20.175Z,80.65
2023-01-13T15:32:47.115Z,81.92
2023-01-13T15:35:15.581Z,80.79
2023-01-13T15:37:44.151Z,81.56
2023-01-13T15:40:22.484Z,81.80
2023-01-13T15:42:49.726Z,81.10
2023-01-13T15:45:16.965Z,80.98
2023-01-13T15:47:44.717Z,82.38
2023-01-13T15:50:16.502Z,81.62
2023-01-13T15:52:43.455Z,82.04
2023-01-13T15:55:10.966Z,83.38
2023-01-13T15:57:45.598Z,83.64
2023-01-13T16:00:20.418Z,81.33
2023-01-13T16:02:48.122Z,80.53
2023-01-13T16:05:14.912Z,80.12
2023-01-13T16:07:41.868Z,79.97
2023-01-13T16:10:35.029Z,79.88
2023-01-13T16:13:23.030Z,80.54
2023-01-13T16:16:29.362Z,80.48
2023-01-13T16:19:03.486Z,80.82
2023-01-13T16:21:46.114Z,81.00
2023-01-13T16:24:22.370Z,80.53
2023-01-13T16:27:06.388Z,80.21
2023-01-13T16:29:35.563Z,80.61
2023-01-13T16:32:02.781Z,82.02
2023-01-13T16:34:29.612Z,83.17
2023-01-13T16:36:56.348Z,83.46
2023-01-13T16:39:23.585Z,83.58
2023-01-13T16:41:50.372Z,83.26
2023-01-13T16:44:17.405Z,82.82
2023-01-13T16:46:45.067Z,83.41
2023-01-13T16:49:13.953Z,83.28
2023-01-13T16:52:13.788Z,82.61
2023-01-13T16:54:48.673Z,83.10
2023-01-13T16:57:23.287Z,82.73
2023-01-13T17:00:04.529Z,84.07
2023-01-13T17:02:59.533Z,84.79
2023-01-13T17:05:58.697Z,84.67
2023-01-13T17:08:52.644Z,84.00
2023-01-13T17:11:21.209Z,83.75
2023-01-13T17:13:50.964Z,84.56
2023-01-13T17:16:35.802Z,84.37
2023-01-13T17:19:02.810Z,84.01
2023-01-13T17:21:29.963Z,84.02
2023-01-13T17:23:57.036Z,83.95
2023-01-13T17:26:34.892Z,83.29
2023-01-13T17:29:26.520Z,83.78
2023-01-13T17:31:53.579Z,83.03
2023-01-13T17:34:21.325Z,83.17
2023-01-13T17:36:48.603Z,83.34
2023-01-13T17:39:17.990Z,82.72
2023-01-13T17:41:49.507Z,81.65
2023-01-13T17:44:21.820Z,81.81
2023-01-13T17:46:49.544Z,81.60
2023-01-13T17:49:19.203Z,81.17
2023-01-13T17:51:45.937Z,81.10
2023-01-13T17:54:15.850Z,80.51
2023-01-13T17:56:44.658Z,79.87
2023-01-13T17:59:12.880Z,79.60
2023-01-13T18:01:43.288Z,80.23
2023-01-13T18:04:16.289Z,79.92
2023-01-13T18:06:44.693Z,78.92
2023-01-13T18:09:16.788Z,80.24
2023-01-13T18:11:47.322Z,80.00
2023-01-13T18:14:16.228Z,80.46
2023-01-13T18:16:44.344Z,80.29
2023-01-13T18:19:11.492Z,79.80
2023-01-13T18:21:38.108Z,79.85
2023-01-13T18:24:05.913Z,80.50
2023-01-13T18:26:33.152Z,80.87
2023-01-13T18:29:00.932Z,80.99
2023-01-13T18:31:28.937Z,80.96
2023-01-13T18:33:55.689Z,80.88
2023-01-13T18:36:22.501Z,80.19
2023-01-13T18:38:50.376Z,81.23
2023-01-13T18:41:17.325Z,80.78
2023-01-13T18:43:44.030Z,81.59
2023-01-13T18:46:10.671Z,81.64
2023-01-13T18:48:37.406Z,81.97
2023-01-13T18:51:05.147Z,81.49
2023-01-13T18:53:31.886Z,80.48
2023-01-13T18:55:58.618Z,80.19
2023-01-13T18:58:25.623Z,80.01
2023-01-13T19:01:01.408Z,81.04
2023-01-13T19:03:30.278Z,80.55
2023-01-13T19:06:05.635Z,81.59
2023-01-13T19:08:32.727Z,81.07
2023-01-13T19:11:06.754Z,81.36
2023-01-13T19:13:36.314Z,80.79
2023-01-13T19:16:07.450Z,81.26
2023-01-13T19:18:36.711Z,80.70
2023-01-13T19:21:10.270Z,80.82
2023-01-13T19:23:37.695Z,81.03
2023-01-13T19:26:07.534Z,81.37
2023-01-13T19:28:35.619Z,81.53
2023-01-13T19:31:04.879Z,80.06
2023-01-13T19:33:36.059Z,81.42
2023-01-13T19:36:04.443Z,81.22
2023-01-13T19:38:31.962Z,81.63
2023-01-13T19:41:01.241Z,81.27
2023-01-13T19:43:28.525Z,81.87
2023-01-13T19:45:55.222Z,81.99
2023-01-13T19:48:22.013Z,81.54
2023-01-13T19:50:49.663Z,81.68
2023-01-13T19:53:18.021Z,81.82
2023-01-13T19:55:47.558Z,81.66
2023-01-13T19:58:16.631Z,81.21
2023-01-13T20:00:43.362Z,81.87
2023-01-13T20:03:10.270Z,82.06
2023-01-13T20:05:37.038Z,80.99
2023-01-13T20:08:04.360Z,80.73
2023-01-13T20:10:31.052Z,80.39
2023-01-13T20:12:58.413Z,80.03
2023-01-13T20:15:25.259Z,79.33
2023-01-13T20:17:58.224Z,80.02
2023-01-13T20:20:25.495Z,79.82
2023-01-13T20:22:52.786Z,79.86
2023-01-13T20:25:19.711Z,80.78
2023-01-13T20:27:47.490Z,79.87
2023-01-13T20:30:15.082Z,80.06
2023-01-13T20:32:43.827Z,80.41
2023-01-13T20:35:11.531Z,79.33
2023-01-13T20:37:39.137Z,79.48
2023-01-13T20:40:07.509Z,80.23
2023-01-13T20:42:34.329Z,82.14
2023-01-13T20:45:01.591Z,82.31
2023-01-13T20:47:30.175Z,82.08
2023-01-13T20:49:57.053Z,83.33
2023-01-13T20:52:23.747Z,83.02
2023-01-13T20:54:50.669Z,83.10
2023-01-13T20:57:17.778Z,83.27
2023-01-13T20:59:44.549Z,82.68
2023-01-13T21:02:13.306Z,83.07
2023-01-13T21:04:49.215Z,82.59
2023-01-13T21:07:24.244Z,81.49
2023-01-13T21:09:56.604Z,81.86
2023-01-13T21:12:23.518Z,80.90
2023-01-13T21:14:51.278Z,81.28
2023-01-13T21:17:18.048Z,81.73
2023-01-13T21:19:47.373Z,81.44
2023-01-13T21:22:14.257Z,81.46
2023-01-13T21:24:40.898Z,80.92
2023-01-13T21:27:07.585Z,81.26
2023-01-13T21:29:35.621Z,81.55
2023-01-13T21:32:02.283Z,81.55
2023-01-13T21:34:28.991Z,81.36
2023-01-13T21:36:56.433Z,79.99
2023-01-13T21:39:23.223Z,80.65
2023-01-13T21:41:49.988Z,81.34
2023-01-13T21:44:18.975Z,81.10
2023-01-13T21:46:45.585Z,81.42
2023-01-13T21:49:12.150Z,80.79
2023-01-13T21:51:38.961Z,80.75
2023-01-13T21:54:05.641Z,82.63
2023-01-13T21:56:32.336Z,82.36
2023-01-13T21:58:58.984Z,81.31
2023-01-13T22:01:25.834Z,81.35
2023-01-13T22:03:52.791Z,81.32
2023-01-13T22:06:19.678Z,81.25
2023-01-13T22:08:46.329Z,80.38
2023-01-13T22:11:13.057Z,80.58
2023-01-13T22:13:40.487Z,80.34
2023-01-13T22:16:07.430Z,81.45
2023-01-13T22:18:36.394Z,81.27
2023-01-13T22:21:03.316Z,81.00
2023-01-13T22:23:37.065Z,81.53
2023-01-13T22:26:06.558Z,81.00
2023-01-13T22:28:34.252Z,81.08
2023-01-13T22:31:01.820Z,81.23
2023-01-13T22:33:28.772Z,80.57
2023-01-13T22:35:56.107Z,81.96
2023-01-13T22:38:22.755Z,80.90
2023-01-13T22:41:00.347Z,81.87
2023-01-13T22:43:27.462Z,81.60
2023-01-13T22:46:02.592Z,81.58
2023-01-13T22:48:29.808Z,81.09
2023-01-13T22:50:56.525Z,80.81
2023-01-13T22:53:23.581Z,81.04
2023-01-13T22:55:57.604Z,81.01
2023-01-13T22:58:25.472Z,80.59
2023-01-13T23:00:52.398Z,80.49
2023-01-13T23:03:19.476Z,79.63
2023-01-13T23:05:48.625Z,79.92
2023-01-13T23:08:15.368Z,80.05
2023-01-13T23:10:42.519Z,80.03
2023-01-13T23:13:09.290Z,80.31
2023-01-13T23:15:35.960Z,80.39
2023-01-13T23:18:02.761Z,81.04
2023-01-13T23:20:30.230Z,80.71
2023-01-13T23:22:57.389Z,80.14
2023-01-13T23:25:25.961Z,79.91
2023-01-13T23:27:53.233Z,80.76
2023-01-13T23:30:19.959Z,79.98
2023-01-13T23:32:46.676Z,81.59
2023-01-13T23:35:13.405Z,81.64
2023-01-13T23:37:40.131Z,80.85
2023-01-13T23:40:07.235Z,81.64
2023-01-13T23:42:34.017Z,82.02
2023-01-13T23:45:00.606Z,81.67
2023-01-13T23:47:28.345Z,81.19
2023-01-13T23:49:54.977Z,81.15
2023-01-13T23:52:21.598Z,80.88
2023-01-13T23:54:48.207Z,80.41
2023-01-13T23:57:15.225Z,80.43
2023-01-13T23:59:41.875Z,79.50
